sensor_id;sensor_type;location;lat;lon;timestamp;P1;durP1;ratioP1;P2;durP2;ratioP2
39846;SDS011;25517;52.422;10.782;2023-04-25T00:01:37;15.93;;;6.00;;
39846;SDS011;25517;52.422;10.782;2023-04-25T00:04:03;19.48;;;7.20;;
39846;SDS011;25517;52.422;10.782;2023-04-25T00:06:30;13.73;;;5.75;;
39846;SDS011;25517;52.422;10.782;2023-04-25T00:08:57;13.23;;;5.32;;
39846;SDS011;25517;52.422;10.782;2023-04-25T00:11:23;16.90;;;6.80;;
39846;SDS011;25517;52.422;10.782;2023-04-25T00:13:49;15.90;;;6.20;;
39846;SDS011;25517;52.422;10.782;2023-04-25T00:16:17;20.02;;;5.95;;
39846;SDS011;25517;52.422;10.782;2023-04-25T00:18:43;14.88;;;5.88;;
39846;SDS011;25517;52.422;10.782;2023-04-25T00:21:11;10.55;;;5.50;;
39846;SDS011;25517;52.422;10.782;2023-04-25T00:23:36;14.68;;;5.75;;
39846;SDS011;25517;52.422;10.782;2023-04-25T00:26:03;12.35;;;5.75;;
39846;SDS011;25517;52.422;10.782;2023-04-25T00:28:29;20.10;;;7.00;;
39846;SDS011;25517;52.422;10.782;2023-04-25T00:30:54;16.08;;;6.43;;
39846;SDS011;25517;52.422;10.782;2023-04-25T00:33:20;16.80;;;6.40;;
39846;SDS011;25517;52.422;10.782;2023-04-25T00:35:46;17.83;;;6.18;;
39846;SDS011;25517;52.422;10.782;2023-04-25T00:38:11;13.85;;;6.18;;
39846;SDS011;25517;52.422;10.782;2023-04-25T00:40:37;12.30;;;5.95;;
39846;SDS011;25517;52.422;10.782;2023-04-25T00:43:02;15.00;;;6.82;;
39846;SDS011;25517;52.422;10.782;2023-04-25T00:45:29;23.17;;;6.60;;
39846;SDS011;25517;52.422;10.782;2023-04-25T00:47:55;15.63;;;6.75;;
39846;SDS011;25517;52.422;10.782;2023-04-25T00:50:21;17.38;;;7.30;;
39846;SDS011;25517;52.422;10.782;2023-04-25T00:52:47;21.30;;;7.25;;
39846;SDS011;25517;52.422;10.782;2023-04-25T00:55:13;15.77;;;6.85;;
39846;SDS011;25517;52.422;10.782;2023-04-25T00:57:40;20.60;;;8.43;;
39846;SDS011;25517;52.422;10.782;2023-04-25T01:00:06;16.52;;;7.60;;
39846;SDS011;25517;52.422;10.782;2023-04-25T01:02:34;18.25;;;7.43;;
39846;SDS011;25517;52.422;10.782;2023-04-25T01:05:00;16.77;;;7.60;;
39846;SDS011;25517;52.422;10.782;2023-04-25T01:07:27;16.75;;;7.45;;
39846;SDS011;25517;52.422;10.782;2023-04-25T01:09:53;17.10;;;7.10;;
39846;SDS011;25517;52.422;10.782;2023-04-25T01:12:18;14.10;;;7.32;;
39846;SDS011;25517;52.422;10.782;2023-04-25T01:14:44;15.98;;;6.82;;
39846;SDS011;25517;52.422;10.782;2023-04-25T01:17:11;16.83;;;6.55;;
39846;SDS011;25517;52.422;10.782;2023-04-25T01:19:36;19.20;;;7.03;;
39846;SDS011;25517;52.422;10.782;2023-04-25T01:22:02;19.60;;;7.65;;
39846;SDS011;25517;52.422;10.782;2023-04-25T01:24:28;16.45;;;7.80;;
39846;SDS011;25517;52.422;10.782;2023-04-25T01:26:54;13.40;;;7.57;;
39846;SDS011;25517;52.422;10.782;2023-04-25T01:29:21;15.10;;;7.75;;
39846;SDS011;25517;52.422;10.782;2023-04-25T01:31:47;15.70;;;6.82;;
39846;SDS011;25517;52.422;10.782;2023-04-25T01:34:13;16.90;;;7.60;;
39846;SDS011;25517;52.422;10.782;2023-04-25T01:36:39;18.23;;;7.30;;
39846;SDS011;25517;52.422;10.782;2023-04-25T01:39:05;23.70;;;8.02;;
39846;SDS011;25517;52.422;10.782;2023-04-25T01:41:31;20.42;;;9.10;;
39846;SDS011;25517;52.422;10.782;2023-04-25T01:43:57;21.05;;;7.95;;
39846;SDS011;25517;52.422;10.782;2023-04-25T01:46:23;16.83;;;7.28;;
39846;SDS011;25517;52.422;10.782;2023-04-25T01:48:49;19.30;;;8.25;;
39846;SDS011;25517;52.422;10.782;2023-04-25T01:51:15;17.27;;;7.93;;
39846;SDS011;25517;52.422;10.782;2023-04-25T01:53:40;13.18;;;7.50;;
39846;SDS011;25517;52.422;10.782;2023-04-25T01:56:07;19.33;;;7.30;;
39846;SDS011;25517;52.422;10.782;2023-04-25T01:58:33;17.42;;;7.25;;
39846;SDS011;25517;52.422;10.782;2023-04-25T02:00:58;15.27;;;6.47;;
39846;SDS011;25517;52.422;10.782;2023-04-25T02:03:24;20.02;;;7.03;;
39846;SDS011;25517;52.422;10.782;2023-04-25T02:05:50;14.43;;;6.97;;
39846;SDS011;25517;52.422;10.782;2023-04-25T02:08:16;19.83;;;7.03;;
39846;SDS011;25517;52.422;10.782;2023-04-25T02:10:43;14.10;;;7.35;;
39846;SDS011;25517;52.422;10.782;2023-04-25T02:13:08;16.00;;;8.07;;
39846;SDS011;25517;52.422;10.782;2023-04-25T02:15:34;17.58;;;7.70;;
39846;SDS011;25517;52.422;10.782;2023-04-25T02:18:00;19.08;;;7.43;;
39846;SDS011;25517;52.422;10.782;2023-04-25T02:20:26;22.35;;;8.10;;
39846;SDS011;25517;52.422;10.782;2023-04-25T02:22:52;15.32;;;7.22;;
39846;SDS011;25517;52.422;10.782;2023-04-25T02:25:18;16.67;;;6.57;;
39846;SDS011;25517;52.422;10.782;2023-04-25T02:27:45;25.70;;;8.20;;
39846;SDS011;25517;52.422;10.782;2023-04-25T02:30:11;14.38;;;6.97;;
39846;SDS011;25517;52.422;10.782;2023-04-25T02:32:37;24.58;;;7.90;;
39846;SDS011;25517;52.422;10.782;2023-04-25T02:35:03;17.92;;;7.32;;
39846;SDS011;25517;52.422;10.782;2023-04-25T02:37:30;32.67;;;9.02;;
39846;SDS011;25517;52.422;10.782;2023-04-25T02:39:56;23.20;;;7.95;;
39846;SDS011;25517;52.422;10.782;2023-04-25T02:42:21;20.95;;;8.00;;
39846;SDS011;25517;52.422;10.782;2023-04-25T02:44:47;16.42;;;7.68;;
39846;SDS011;25517;52.422;10.782;2023-04-25T02:47:12;16.20;;;8.70;;
39846;SDS011;25517;52.422;10.782;2023-04-25T02:49:38;18.65;;;8.43;;
39846;SDS011;25517;52.422;10.782;2023-04-25T02:52:04;19.42;;;7.97;;
39846;SDS011;25517;52.422;10.782;2023-04-25T02:54:29;21.20;;;7.88;;
39846;SDS011;25517;52.422;10.782;2023-04-25T02:56:55;13.45;;;7.60;;
39846;SDS011;25517;52.422;10.782;2023-04-25T02:59:21;18.00;;;7.97;;
39846;SDS011;25517;52.422;10.782;2023-04-25T03:01:46;22.70;;;7.28;;
39846;SDS011;25517;52.422;10.782;2023-04-25T03:04:12;26.98;;;10.43;;
39846;SDS011;25517;52.422;10.782;2023-04-25T03:06:37;19.48;;;9.75;;
39846;SDS011;25517;52.422;10.782;2023-04-25T03:09:03;25.65;;;9.55;;
39846;SDS011;25517;52.422;10.782;2023-04-25T03:11:28;25.10;;;10.77;;
39846;SDS011;25517;52.422;10.782;2023-04-25T03:13:54;26.85;;;10.02;;
39846;SDS011;25517;52.422;10.782;2023-04-25T03:16:20;26.10;;;11.20;;
39846;SDS011;25517;52.422;10.782;2023-04-25T03:18:46;24.75;;;10.75;;
39846;SDS011;25517;52.422;10.782;2023-04-25T03:21:12;27.38;;;12.27;;
39846;SDS011;25517;52.422;10.782;2023-04-25T03:23:37;27.02;;;10.85;;
39846;SDS011;25517;52.422;10.782;2023-04-25T03:26:03;24.73;;;11.63;;
39846;SDS011;25517;52.422;10.782;2023-04-25T03:28:29;26.85;;;11.45;;
39846;SDS011;25517;52.422;10.782;2023-04-25T03:30:54;24.67;;;12.35;;
39846;SDS011;25517;52.422;10.782;2023-04-25T03:33:20;30.20;;;11.77;;
39846;SDS011;25517;52.422;10.782;2023-04-25T03:35:45;26.42;;;12.05;;
39846;SDS011;25517;52.422;10.782;2023-04-25T03:38:11;28.08;;;11.90;;
39846;SDS011;25517;52.422;10.782;2023-04-25T03:40:36;26.50;;;11.93;;
39846;SDS011;25517;52.422;10.782;2023-04-25T03:43:02;27.42;;;12.32;;
39846;SDS011;25517;52.422;10.782;2023-04-25T03:45:27;30.08;;;13.73;;
39846;SDS011;25517;52.422;10.782;2023-04-25T03:47:53;39.13;;;13.95;;
39846;SDS011;25517;52.422;10.782;2023-04-25T03:50:18;26.77;;;13.68;;
39846;SDS011;25517;52.422;10.782;2023-04-25T03:52:45;20.85;;;10.27;;
39846;SDS011;25517;52.422;10.782;2023-04-25T03:55:10;27.08;;;11.43;;
39846;SDS011;25517;52.422;10.782;2023-04-25T03:57:36;26.27;;;11.75;;
39846;SDS011;25517;52.422;10.782;2023-04-25T04:00:01;26.52;;;12.35;;
39846;SDS011;25517;52.422;10.782;2023-04-25T04:02:28;24.63;;;11.00;;
39846;SDS011;25517;52.422;10.782;2023-04-25T04:04:54;23.38;;;9.93;;
39846;SDS011;25517;52.422;10.782;2023-04-25T04:07:21;22.45;;;10.27;;
39846;SDS011;25517;52.422;10.782;2023-04-25T04:09:46;25.95;;;10.50;;
39846;SDS011;25517;52.422;10.782;2023-04-25T04:12:12;23.10;;;8.25;;
39846;SDS011;25517;52.422;10.782;2023-04-25T04:14:38;28.63;;;9.95;;
39846;SDS011;25517;52.422;10.782;2023-04-25T04:17:03;24.48;;;8.85;;
39846;SDS011;25517;52.422;10.782;2023-04-25T04:19:29;25.88;;;8.70;;
39846;SDS011;25517;52.422;10.782;2023-04-25T04:21:54;26.30;;;8.05;;
39846;SDS011;25517;52.422;10.782;2023-04-25T04:24:20;22.38;;;7.32;;
39846;SDS011;25517;52.422;10.782;2023-04-25T04:26:45;20.98;;;7.35;;
39846;SDS011;25517;52.422;10.782;2023-04-25T04:29:11;26.35;;;7.20;;
39846;SDS011;25517;52.422;10.782;2023-04-25T04:31:36;24.85;;;7.50;;
39846;SDS011;25517;52.422;10.782;2023-04-25T04:34:02;27.50;;;8.05;;
39846;SDS011;25517;52.422;10.782;2023-04-25T04:36:28;25.83;;;7.28;;
39846;SDS011;25517;52.422;10.782;2023-04-25T04:38:54;20.60;;;7.03;;
39846;SDS011;25517;52.422;10.782;2023-04-25T04:41:21;21.85;;;7.05;;
39846;SDS011;25517;52.422;10.782;2023-04-25T04:43:47;34.97;;;7.88;;
39846;SDS011;25517;52.422;10.782;2023-04-25T04:46:12;27.30;;;7.82;;
39846;SDS011;25517;52.422;10.782;2023-04-25T04:48:38;30.52;;;7.38;;
39846;SDS011;25517;52.422;10.782;2023-04-25T04:51:05;32.55;;;7.85;;
39846;SDS011;25517;52.422;10.782;2023-04-25T04:53:31;20.63;;;6.80;;
39846;SDS011;25517;52.422;10.782;2023-04-25T04:55:57;34.40;;;7.40;;
39846;SDS011;25517;52.422;10.782;2023-04-25T04:58:23;28.00;;;7.82;;
39846;SDS011;25517;52.422;10.782;2023-04-25T05:00:48;26.85;;;7.93;;
39846;SDS011;25517;52.422;10.782;2023-04-25T05:03:14;29.05;;;7.45;;
39846;SDS011;25517;52.422;10.782;2023-04-25T05:05:40;26.30;;;7.43;;
39846;SDS011;25517;52.422;10.782;2023-04-25T05:08:06;22.45;;;7.78;;
39846;SDS011;25517;52.422;10.782;2023-04-25T05:10:31;36.90;;;8.60;;
39846;SDS011;25517;52.422;10.782;2023-04-25T05:12:57;39.58;;;7.70;;
39846;SDS011;25517;52.422;10.782;2023-04-25T05:15:23;27.38;;;6.50;;
39846;SDS011;25517;52.422;10.782;2023-04-25T05:17:48;35.45;;;7.38;;
39846;SDS011;25517;52.422;10.782;2023-04-25T05:20:14;35.35;;;7.60;;
39846;SDS011;25517;52.422;10.782;2023-04-25T05:22:40;36.97;;;8.05;;
39846;SDS011;25517;52.422;10.782;2023-04-25T05:25:06;34.22;;;7.35;;
39846;SDS011;25517;52.422;10.782;2023-04-25T05:27:35;37.50;;;7.47;;
39846;SDS011;25517;52.422;10.782;2023-04-25T05:30:01;27.17;;;7.15;;
39846;SDS011;25517;52.422;10.782;2023-04-25T05:32:26;27.45;;;7.13;;
39846;SDS011;25517;52.422;10.782;2023-04-25T05:34:52;29.35;;;8.05;;
39846;SDS011;25517;52.422;10.782;2023-04-25T05:37:18;37.22;;;7.72;;
39846;SDS011;25517;52.422;10.782;2023-04-25T05:39:43;29.83;;;8.13;;
39846;SDS011;25517;52.422;10.782;2023-04-25T05:42:09;24.80;;;7.05;;
39846;SDS011;25517;52.422;10.782;2023-04-25T05:44:35;37.28;;;7.10;;
39846;SDS011;25517;52.422;10.782;2023-04-25T05:47:00;30.58;;;7.05;;
39846;SDS011;25517;52.422;10.782;2023-04-25T05:49:26;27.45;;;6.50;;
39846;SDS011;25517;52.422;10.782;2023-04-25T05:51:51;38.10;;;6.22;;
39846;SDS011;25517;52.422;10.782;2023-04-25T05:54:17;25.90;;;5.63;;
39846;SDS011;25517;52.422;10.782;2023-04-25T05:56:42;27.05;;;6.75;;
39846;SDS011;25517;52.422;10.782;2023-04-25T05:59:08;26.60;;;7.00;;
39846;SDS011;25517;52.422;10.782;2023-04-25T06:01:33;29.48;;;6.97;;
39846;SDS011;25517;52.422;10.782;2023-04-25T06:03:59;29.85;;;5.57;;
39846;SDS011;25517;52.422;10.782;2023-04-25T06:06:24;23.70;;;4.78;;
39846;SDS011;25517;52.422;10.782;2023-04-25T06:08:50;30.02;;;6.97;;
39846;SDS011;25517;52.422;10.782;2023-04-25T06:11:16;29.38;;;5.85;;
39846;SDS011;25517;52.422;10.782;2023-04-25T06:13:41;26.45;;;6.20;;
39846;SDS011;25517;52.422;10.782;2023-04-25T06:16:07;29.48;;;7.07;;
39846;SDS011;25517;52.422;10.782;2023-04-25T06:18:32;27.30;;;6.65;;
39846;SDS011;25517;52.422;10.782;2023-04-25T06:20:58;31.80;;;6.35;;
39846;SDS011;25517;52.422;10.782;2023-04-25T06:23:23;31.83;;;6.68;;
39846;SDS011;25517;52.422;10.782;2023-04-25T06:25:49;27.40;;;6.38;;
39846;SDS011;25517;52.422;10.782;2023-04-25T06:28:15;31.50;;;8.50;;
39846;SDS011;25517;52.422;10.782;2023-04-25T06:30:40;30.45;;;6.78;;
39846;SDS011;25517;52.422;10.782;2023-04-25T06:33:06;22.38;;;5.55;;
39846;SDS011;25517;52.422;10.782;2023-04-25T06:35:33;24.27;;;5.70;;
39846;SDS011;25517;52.422;10.782;2023-04-25T06:37:59;33.33;;;7.28;;
39846;SDS011;25517;52.422;10.782;2023-04-25T06:40:24;24.88;;;6.85;;
39846;SDS011;25517;52.422;10.782;2023-04-25T06:42:50;28.88;;;7.10;;
39846;SDS011;25517;52.422;10.782;2023-04-25T06:45:15;40.88;;;7.35;;
39846;SDS011;25517;52.422;10.782;2023-04-25T06:47:41;26.02;;;5.45;;
39846;SDS011;25517;52.422;10.782;2023-04-25T06:50:07;25.95;;;6.65;;
39846;SDS011;25517;52.422;10.782;2023-04-25T06:52:33;22.70;;;6.22;;
39846;SDS011;25517;52.422;10.782;2023-04-25T06:54:58;22.60;;;5.00;;
39846;SDS011;25517;52.422;10.782;2023-04-25T06:57:23;20.90;;;5.57;;
39846;SDS011;25517;52.422;10.782;2023-04-25T06:59:49;20.77;;;4.78;;
39846;SDS011;25517;52.422;10.782;2023-04-25T07:02:15;24.88;;;4.43;;
39846;SDS011;25517;52.422;10.782;2023-04-25T07:04:40;25.00;;;4.82;;
39846;SDS011;25517;52.422;10.782;2023-04-25T07:07:06;19.58;;;5.25;;
39846;SDS011;25517;52.422;10.782;2023-04-25T07:09:31;23.27;;;4.93;;
39846;SDS011;25517;52.422;10.782;2023-04-25T07:11:58;24.55;;;4.68;;
39846;SDS011;25517;52.422;10.782;2023-04-25T07:14:26;12.23;;;4.03;;
39846;SDS011;25517;52.422;10.782;2023-04-25T07:16:52;18.30;;;5.00;;
39846;SDS011;25517;52.422;10.782;2023-04-25T07:19:17;19.83;;;4.85;;
39846;SDS011;25517;52.422;10.782;2023-04-25T07:21:43;19.30;;;3.95;;
39846;SDS011;25517;52.422;10.782;2023-04-25T07:24:08;14.65;;;4.30;;
39846;SDS011;25517;52.422;10.782;2023-04-25T07:26:34;19.27;;;4.55;;
39846;SDS011;25517;52.422;10.782;2023-04-25T07:28:59;19.92;;;4.95;;
39846;SDS011;25517;52.422;10.782;2023-04-25T07:31:25;17.02;;;4.55;;
39846;SDS011;25517;52.422;10.782;2023-04-25T07:33:51;21.92;;;4.47;;
39846;SDS011;25517;52.422;10.782;2023-04-25T07:36:17;19.20;;;5.22;;
39846;SDS011;25517;52.422;10.782;2023-04-25T07:38:42;18.83;;;4.82;;
39846;SDS011;25517;52.422;10.782;2023-04-25T07:41:08;15.18;;;3.88;;
39846;SDS011;25517;52.422;10.782;2023-04-25T07:43:33;12.00;;;3.90;;
39846;SDS011;25517;52.422;10.782;2023-04-25T07:45:59;21.90;;;5.60;;
39846;SDS011;25517;52.422;10.782;2023-04-25T07:48:24;20.73;;;5.18;;
39846;SDS011;25517;52.422;10.782;2023-04-25T07:50:50;18.85;;;4.22;;
39846;SDS011;25517;52.422;10.782;2023-04-25T07:53:16;24.45;;;4.15;;
39846;SDS011;25517;52.422;10.782;2023-04-25T07:55:42;13.35;;;3.50;;
39846;SDS011;25517;52.422;10.782;2023-04-25T07:58:08;21.00;;;4.03;;
39846;SDS011;25517;52.422;10.782;2023-04-25T08:00:35;23.42;;;3.90;;
39846;SDS011;25517;52.422;10.782;2023-04-25T08:03:00;23.35;;;4.10;;
39846;SDS011;25517;52.422;10.782;2023-04-25T08:05:26;14.52;;;4.43;;
39846;SDS011;25517;52.422;10.782;2023-04-25T08:07:51;20.50;;;4.82;;
39846;SDS011;25517;52.422;10.782;2023-04-25T08:10:17;15.82;;;3.50;;
39846;SDS011;25517;52.422;10.782;2023-04-25T08:12:42;13.73;;;3.55;;
39846;SDS011;25517;52.422;10.782;2023-04-25T08:15:08;10.82;;;3.63;;
39846;SDS011;25517;52.422;10.782;2023-04-25T08:17:34;22.95;;;4.82;;
39846;SDS011;25517;52.422;10.782;2023-04-25T08:20:00;20.75;;;4.38;;
39846;SDS011;25517;52.422;10.782;2023-04-25T08:22:25;15.85;;;3.70;;
39846;SDS011;25517;52.422;10.782;2023-04-25T08:24:51;11.43;;;3.95;;
39846;SDS011;25517;52.422;10.782;2023-04-25T08:27:17;16.65;;;3.90;;
39846;SDS011;25517;52.422;10.782;2023-04-25T08:29:43;22.80;;;4.32;;
39846;SDS011;25517;52.422;10.782;2023-04-25T08:32:09;14.45;;;4.35;;
39846;SDS011;25517;52.422;10.782;2023-04-25T08:34:34;24.45;;;4.50;;
39846;SDS011;25517;52.422;10.782;2023-04-25T08:37:01;18.67;;;3.95;;
39846;SDS011;25517;52.422;10.782;2023-04-25T08:39:29;20.05;;;4.80;;
39846;SDS011;25517;52.422;10.782;2023-04-25T08:41:55;17.95;;;5.20;;
39846;SDS011;25517;52.422;10.782;2023-04-25T08:44:21;21.38;;;4.40;;
39846;SDS011;25517;52.422;10.782;2023-04-25T08:46:48;21.30;;;5.43;;
39846;SDS011;25517;52.422;10.782;2023-04-25T08:49:14;14.15;;;3.83;;
39846;SDS011;25517;52.422;10.782;2023-04-25T08:51:45;28.92;;;4.30;;
39846;SDS011;25517;52.422;10.782;2023-04-25T08:54:12;20.63;;;4.18;;
39846;SDS011;25517;52.422;10.782;2023-04-25T08:56:39;16.33;;;3.35;;
39846;SDS011;25517;52.422;10.782;2023-04-25T08:59:09;10.07;;;3.57;;
39846;SDS011;25517;52.422;10.782;2023-04-25T09:01:35;15.52;;;3.17;;
39846;SDS011;25517;52.422;10.782;2023-04-25T09:04:01;15.68;;;4.03;;
39846;SDS011;25517;52.422;10.782;2023-04-25T09:06:28;17.15;;;4.53;;
39846;SDS011;25517;52.422;10.782;2023-04-25T09:08:55;11.00;;;3.38;;
39846;SDS011;25517;52.422;10.782;2023-04-25T09:11:30;17.98;;;4.18;;
39846;SDS011;25517;52.422;10.782;2023-04-25T09:14:15;19.10;;;4.60;;
39846;SDS011;25517;52.422;10.782;2023-04-25T09:21:58;11.88;;;3.42;;
39846;SDS011;25517;52.422;10.782;2023-04-25T09:24:31;12.25;;;3.00;;
39846;SDS011;25517;52.422;10.782;2023-04-25T09:26:57;9.45;;;3.00;;
39846;SDS011;25517;52.422;10.782;2023-04-25T09:29:33;7.47;;;2.50;;
39846;SDS011;25517;52.422;10.782;2023-04-25T09:34:41;12.48;;;4.05;;
39846;SDS011;25517;52.422;10.782;2023-04-25T09:37:09;9.00;;;3.60;;
39846;SDS011;25517;52.422;10.782;2023-04-25T09:39:36;5.82;;;2.60;;
39846;SDS011;25517;52.422;10.782;2023-04-25T09:42:02;10.98;;;4.05;;
39846;SDS011;25517;52.422;10.782;2023-04-25T09:44:28;11.50;;;3.53;;
39846;SDS011;25517;52.422;10.782;2023-04-25T09:46:54;14.02;;;3.90;;
39846;SDS011;25517;52.422;10.782;2023-04-25T09:49:20;13.38;;;3.15;;
39846;SDS011;25517;52.422;10.782;2023-04-25T09:51:55;12.05;;;3.33;;
39846;SDS011;25517;52.422;10.782;2023-04-25T09:54:22;10.98;;;3.50;;
39846;SDS011;25517;52.422;10.782;2023-04-25T09:56:51;9.57;;;2.67;;
39846;SDS011;25517;52.422;10.782;2023-04-25T09:59:19;13.77;;;3.40;;
39846;SDS011;25517;52.422;10.782;2023-04-25T10:01:49;15.77;;;3.28;;
39846;SDS011;25517;52.422;10.782;2023-04-25T10:04:22;17.55;;;3.15;;
39846;SDS011;25517;52.422;10.782;2023-04-25T10:06:51;15.32;;;3.92;;
39846;SDS011;25517;52.422;10.782;2023-04-25T10:09:19;10.65;;;3.08;;
39846;SDS011;25517;52.422;10.782;2023-04-25T10:11:46;9.32;;;3.00;;
39846;SDS011;25517;52.422;10.782;2023-04-25T10:14:15;8.32;;;3.05;;
39846;SDS011;25517;52.422;10.782;2023-04-25T10:16:41;10.02;;;3.40;;
39846;SDS011;25517;52.422;10.782;2023-04-25T10:19:08;12.50;;;2.75;;
39846;SDS011;25517;52.422;10.782;2023-04-25T10:21:35;7.85;;;2.58;;
39846;SDS011;25517;52.422;10.782;2023-04-25T10:24:09;10.48;;;3.35;;
39846;SDS011;25517;52.422;10.782;2023-04-25T10:26:35;11.65;;;3.72;;
39846;SDS011;25517;52.422;10.782;2023-04-25T10:29:01;11.95;;;3.63;;
39846;SDS011;25517;52.422;10.782;2023-04-25T10:31:31;7.45;;;2.33;;
39846;SDS011;25517;52.422;10.782;2023-04-25T10:33:57;13.13;;;2.80;;
39846;SDS011;25517;52.422;10.782;2023-04-25T10:36:25;7.90;;;2.80;;
39846;SDS011;25517;52.422;10.782;2023-04-25T10:38:54;13.68;;;3.22;;
39846;SDS011;25517;52.422;10.782;2023-04-25T10:41:20;7.93;;;2.75;;
39846;SDS011;25517;52.422;10.782;2023-04-25T10:43:47;6.07;;;2.60;;
39846;SDS011;25517;52.422;10.782;2023-04-25T10:46:27;9.65;;;2.60;;
39846;SDS011;25517;52.422;10.782;2023-04-25T10:48:56;8.43;;;2.50;;
39846;SDS011;25517;52.422;10.782;2023-04-25T10:51:24;4.07;;;1.98;;
39846;SDS011;25517;52.422;10.782;2023-04-25T10:54:08;8.13;;;2.55;;
39846;SDS011;25517;52.422;10.782;2023-04-25T10:56:41;13.02;;;2.83;;
39846;SDS011;25517;52.422;10.782;2023-04-25T11:01:51;7.10;;;2.60;;
39846;SDS011;25517;52.422;10.782;2023-04-25T11:04:23;7.47;;;3.10;;
39846;SDS011;25517;52.422;10.782;2023-04-25T11:09:35;8.70;;;2.65;;
39846;SDS011;25517;52.422;10.782;2023-04-25T11:12:02;7.03;;;2.35;;
39846;SDS011;25517;52.422;10.782;2023-04-25T11:14:28;9.95;;;2.83;;
39846;SDS011;25517;52.422;10.782;2023-04-25T11:16:54;9.40;;;2.22;;
39846;SDS011;25517;52.422;10.782;2023-04-25T11:19:23;10.23;;;2.20;;
39846;SDS011;25517;52.422;10.782;2023-04-25T11:21:50;10.57;;;2.67;;
39846;SDS011;25517;52.422;10.782;2023-04-25T11:24:19;6.47;;;2.65;;
39846;SDS011;25517;52.422;10.782;2023-04-25T11:26:48;6.43;;;2.92;;
39846;SDS011;25517;52.422;10.782;2023-04-25T11:29:13;7.50;;;2.55;;
39846;SDS011;25517;52.422;10.782;2023-04-25T11:31:42;8.23;;;2.65;;
39846;SDS011;25517;52.422;10.782;2023-04-25T11:34:10;8.52;;;2.55;;
39846;SDS011;25517;52.422;10.782;2023-04-25T11:36:35;8.93;;;2.72;;
39846;SDS011;25517;52.422;10.782;2023-04-25T11:39:03;9.88;;;2.30;;
39846;SDS011;25517;52.422;10.782;2023-04-25T11:41:30;8.80;;;2.50;;
39846;SDS011;25517;52.422;10.782;2023-04-25T11:43:56;8.68;;;2.67;;
39846;SDS011;25517;52.422;10.782;2023-04-25T11:46:22;12.20;;;2.80;;
39846;SDS011;25517;52.422;10.782;2023-04-25T11:48:47;9.30;;;2.38;;
39846;SDS011;25517;52.422;10.782;2023-04-25T11:51:15;12.43;;;3.17;;
39846;SDS011;25517;52.422;10.782;2023-04-25T11:53:41;10.73;;;2.72;;
39846;SDS011;25517;52.422;10.782;2023-04-25T11:56:09;10.20;;;2.42;;
39846;SDS011;25517;52.422;10.782;2023-04-25T12:01:26;10.95;;;2.60;;
39846;SDS011;25517;52.422;10.782;2023-04-25T12:03:53;11.23;;;2.75;;
39846;SDS011;25517;52.422;10.782;2023-04-25T12:06:19;12.13;;;2.30;;
39846;SDS011;25517;52.422;10.782;2023-04-25T12:09:00;7.40;;;2.30;;
39846;SDS011;25517;52.422;10.782;2023-04-25T12:11:29;10.77;;;3.13;;
39846;SDS011;25517;52.422;10.782;2023-04-25T12:14:05;12.60;;;2.50;;
39846;SDS011;25517;52.422;10.782;2023-04-25T12:16:43;5.57;;;2.13;;
39846;SDS011;25517;52.422;10.782;2023-04-25T12:19:13;7.30;;;2.10;;
39846;SDS011;25517;52.422;10.782;2023-04-25T12:21:39;7.20;;;2.28;;
39846;SDS011;25517;52.422;10.782;2023-04-25T12:24:12;9.38;;;2.08;;
39846;SDS011;25517;52.422;10.782;2023-04-25T12:29:25;4.78;;;1.95;;
39846;SDS011;25517;52.422;10.782;2023-04-25T12:31:52;4.45;;;1.60;;
39846;SDS011;25517;52.422;10.782;2023-04-25T12:34:19;5.82;;;1.58;;
39846;SDS011;25517;52.422;10.782;2023-04-25T12:36:45;3.67;;;1.40;;
39846;SDS011;25517;52.422;10.782;2023-04-25T12:39:14;5.22;;;1.65;;
39846;SDS011;25517;52.422;10.782;2023-04-25T12:41:44;7.50;;;1.60;;
39846;SDS011;25517;52.422;10.782;2023-04-25T12:44:11;7.68;;;2.10;;
39846;SDS011;25517;52.422;10.782;2023-04-25T12:46:37;7.63;;;1.92;;
39846;SDS011;25517;52.422;10.782;2023-04-25T12:49:03;6.03;;;1.88;;
39846;SDS011;25517;52.422;10.782;2023-04-25T12:51:31;8.27;;;1.98;;
39846;SDS011;25517;52.422;10.782;2023-04-25T12:53:57;7.15;;;1.80;;
39846;SDS011;25517;52.422;10.782;2023-04-25T12:56:29;5.22;;;2.08;;
39846;SDS011;25517;52.422;10.782;2023-04-25T12:58:56;7.03;;;2.08;;
39846;SDS011;25517;52.422;10.782;2023-04-25T13:01:22;5.00;;;2.17;;
39846;SDS011;25517;52.422;10.782;2023-04-25T13:03:48;3.38;;;1.52;;
39846;SDS011;25517;52.422;10.782;2023-04-25T13:06:17;5.10;;;2.38;;
39846;SDS011;25517;52.422;10.782;2023-04-25T13:08:43;5.82;;;2.13;;
39846;SDS011;25517;52.422;10.782;2023-04-25T13:11:09;5.78;;;2.20;;
39846;SDS011;25517;52.422;10.782;2023-04-25T13:13:35;6.45;;;2.38;;
39846;SDS011;25517;52.422;10.782;2023-04-25T13:16:01;9.13;;;2.42;;
39846;SDS011;25517;52.422;10.782;2023-04-25T13:18:27;12.00;;;2.30;;
39846;SDS011;25517;52.422;10.782;2023-04-25T13:20:53;8.40;;;1.73;;
39846;SDS011;25517;52.422;10.782;2023-04-25T13:23:19;7.75;;;2.20;;
39846;SDS011;25517;52.422;10.782;2023-04-25T13:25:46;6.78;;;2.25;;
39846;SDS011;25517;52.422;10.782;2023-04-25T13:28:12;6.25;;;1.73;;
39846;SDS011;25517;52.422;10.782;2023-04-25T13:30:38;4.53;;;1.27;;
39846;SDS011;25517;52.422;10.782;2023-04-25T13:33:04;2.95;;;1.50;;
39846;SDS011;25517;52.422;10.782;2023-04-25T13:35:32;5.32;;;1.60;;
39846;SDS011;25517;52.422;10.782;2023-04-25T13:37:59;5.90;;;1.63;;
39846;SDS011;25517;52.422;10.782;2023-04-25T13:40:25;4.25;;;1.98;;
39846;SDS011;25517;52.422;10.782;2023-04-25T13:42:51;4.75;;;1.67;;
39846;SDS011;25517;52.422;10.782;2023-04-25T13:45:17;3.17;;;1.50;;
39846;SDS011;25517;52.422;10.782;2023-04-25T13:47:43;2.33;;;1.45;;
39846;SDS011;25517;52.422;10.782;2023-04-25T13:50:09;6.55;;;1.70;;
39846;SDS011;25517;52.422;10.782;2023-04-25T13:52:35;5.88;;;1.45;;
39846;SDS011;25517;52.422;10.782;2023-04-25T13:55:00;6.22;;;2.20;;
39846;SDS011;25517;52.422;10.782;2023-04-25T13:57:28;6.20;;;2.55;;
39846;SDS011;25517;52.422;10.782;2023-04-25T13:59:55;3.63;;;1.30;;
39846;SDS011;25517;52.422;10.782;2023-04-25T14:02:20;3.65;;;1.65;;
39846;SDS011;25517;52.422;10.782;2023-04-25T14:04:46;4.15;;;1.30;;
39846;SDS011;25517;52.422;10.782;2023-04-25T14:07:12;5.70;;;1.50;;
39846;SDS011;25517;52.422;10.782;2023-04-25T14:09:37;7.15;;;1.67;;
39846;SDS011;25517;52.422;10.782;2023-04-25T14:12:03;4.47;;;1.30;;
39846;SDS011;25517;52.422;10.782;2023-04-25T14:14:28;4.75;;;1.77;;
39846;SDS011;25517;52.422;10.782;2023-04-25T14:16:54;6.60;;;1.60;;
39846;SDS011;25517;52.422;10.782;2023-04-25T14:19:20;5.60;;;2.53;;
39846;SDS011;25517;52.422;10.782;2023-04-25T14:21:46;11.43;;;2.03;;
39846;SDS011;25517;52.422;10.782;2023-04-25T14:24:12;7.47;;;1.35;;
39846;SDS011;25517;52.422;10.782;2023-04-25T14:26:38;6.95;;;1.35;;
39846;SDS011;25517;52.422;10.782;2023-04-25T14:29:04;4.10;;;1.90;;
39846;SDS011;25517;52.422;10.782;2023-04-25T14:31:31;4.70;;;1.20;;
39846;SDS011;25517;52.422;10.782;2023-04-25T14:33:57;3.83;;;1.70;;
39846;SDS011;25517;52.422;10.782;2023-04-25T14:36:23;7.93;;;2.10;;
39846;SDS011;25517;52.422;10.782;2023-04-25T14:38:48;9.65;;;1.67;;